Time;durP1;ratioP1;P1;durP2;ratioP2;P2;SDS_P1;SDS_P2;PMS_P1;PMS_P2;Temp;Humidity;BMP_temperature;BMP_pressure;BME280_temperature;BME280_humidity;BME280_pressure;Samples;Min_cycle;Max_cycle;Signal;HPM_P1;HPM_P2
2021/12/09 00:01:22;;;;;;;0.50;0.50;;;;;;;;;;1833053;77;26226;-34
2021/12/09 00:03:47;;;;;;;0.65;0.65;;;;;;;;;;1821594;77;26945;-42
2021/12/09 00:06:18;;;;;;;0.70;0.70;;;;;;;;;;1835544;77;26288;-38
2021/12/09 00:08:44;;;;;;;0.62;0.62;;;;;;;;;;1826071;77;26252;-34
2021/12/09 00:11:11;;;;;;;0.60;0.60;;;;;;;;;;1835469;77;26269;-34
2021/12/09 00:13:39;;;;;;;0.98;0.70;;;;;;;;;;1821961;77;26309;-36
2021/12/09 00:16:06;;;;;;;0.70;0.70;;;;;;;;;;1811270;78;26269;-35
2021/12/09 00:18:34;;;;;;;0.60;0.60;;;;;;;;;;1819579;78;26248;-38
2021/12/09 00:21:01;;;;;;;0.60;0.60;;;;;;;;;;1804942;78;26780;-33
2021/12/09 00:23:28;;;;;;;0.50;0.50;;;;;;;;;;1800633;77;26279;-31
2021/12/09 00:25:56;;;;;;;0.70;0.70;;;;;;;;;;1819037;77;26757;-34
2021/12/09 00:28:23;;;;;;;0.62;0.62;;;;;;;;;;1821810;77;26298;-30
2021/12/09 00:30:50;;;;;;;0.50;0.50;;;;;;;;;;1808310;78;26302;-32
2021/12/09 00:33:18;;;;;;;0.53;0.53;;;;;;;;;;1813903;78;26742;-33
2021/12/09 00:35:51;;;;;;;0.50;0.50;;;;;;;;;;1797621;79;26289;-34
2021/12/09 00:38:38;;;;;;;0.60;0.60;;;;;;;;;;1796429;78;26344;-32
2021/12/09 00:40:43;;;;;;;0.50;0.50;;;;;;;;;;1814748;77;26305;-42
2021/12/09 00:43:11;;;;;;;0.45;0.45;;;;;;;;;;1806740;78;26807;-41
2021/12/09 00:45:38;;;;;;;0.62;0.62;;;;;;;;;;1770209;80;26362;-33
2021/12/09 00:48:05;;;;;;;0.40;0.40;;;;;;;;;;1790279;78;26371;-32
2021/12/09 00:50:33;;;;;;;0.70;0.70;;;;;;;;;;1774384;78;26245;-35
2021/12/09 00:53:00;;;;;;;0.55;0.55;;;;;;;;;;1769110;78;26288;-31
2021/12/09 00:55:27;;;;;;;0.50;0.50;;;;;;;;;;1772999;78;26760;-38
2021/12/09 00:57:55;;;;;;;0.50;0.50;;;;;;;;;;1784455;78;26258;-33
2021/12/09 01:00:23;;;;;;;0.85;0.60;;;;;;;;;;1783768;80;26449;-32
2021/12/09 01:02:50;;;;;;;0.65;0.50;;;;;;;;;;1769163;80;26379;-33
2021/12/09 01:05:18;;;;;;;0.90;0.68;;;;;;;;;;1777456;78;26335;-35
2021/12/09 01:07:45;;;;;;;0.60;0.60;;;;;;;;;;1772798;80;26339;-33
2021/12/09 01:10:14;;;;;;;0.57;0.57;;;;;;;;;;1803506;77;26685;-32
2021/12/09 01:12:41;;;;;;;0.50;0.50;;;;;;;;;;1768911;79;26809;-32
2021/12/09 01:15:09;;;;;;;0.65;0.65;;;;;;;;;;1815722;78;26367;-36
2021/12/09 01:17:37;;;;;;;0.65;0.65;;;;;;;;;;1825671;78;26818;-35
2021/12/09 01:20:06;;;;;;;0.50;0.50;;;;;;;;;;1829504;78;26304;-37
2021/12/09 01:22:41;;;;;;;0.53;0.53;;;;;;;;;;1830197;77;26857;-32
2021/12/09 01:25:02;;;;;;;0.55;0.55;;;;;;;;;;1833588;77;26336;-31
2021/12/09 01:27:32;;;;;;;0.50;0.50;;;;;;;;;;1837650;77;26299;-32
2021/12/09 01:30:00;;;;;;;0.68;0.68;;;;;;;;;;1840449;77;26308;-32
2021/12/09 01:32:30;;;;;;;0.60;0.60;;;;;;;;;;1796170;78;26321;-30
2021/12/09 01:34:56;;;;;;;0.50;0.50;;;;;;;;;;1826231;77;26418;-31
2021/12/09 01:37:24;;;;;;;0.60;0.60;;;;;;;;;;1826590;77;26293;-30
2021/12/09 01:39:51;;;;;;;0.50;0.50;;;;;;;;;;1827044;77;26972;-33
2021/12/09 01:42:20;;;;;;;0.50;0.50;;;;;;;;;;1826485;77;26268;-32
2021/12/09 01:44:47;;;;;;;0.50;0.50;;;;;;;;;;1826892;77;26400;-37
2021/12/09 01:47:15;;;;;;;0.60;0.60;;;;;;;;;;1827067;77;26307;-37
2021/12/09 01:49:42;;;;;;;0.75;0.75;;;;;;;;;;1828519;77;26280;-40
2021/12/09 01:52:09;;;;;;;0.62;0.60;;;;;;;;;;1827464;77;26276;-38
2021/12/09 01:54:36;;;;;;;0.40;0.40;;;;;;;;;;1828917;77;26276;-31
2021/12/09 01:57:05;;;;;;;0.60;0.60;;;;;;;;;;1844557;77;26261;-30
2021/12/09 01:59:33;;;;;;;0.85;0.62;;;;;;;;;;1828089;77;26257;-34
2021/12/09 02:02:00;;;;;;;0.60;0.60;;;;;;;;;;1838587;77;26740;-31
2021/12/09 02:04:28;;;;;;;2.17;0.60;;;;;;;;;;1838816;77;26296;-31
2021/12/09 02:06:56;;;;;;;0.60;0.60;;;;;;;;;;1834235;77;26279;-34
2021/12/09 02:09:23;;;;;;;0.70;0.70;;;;;;;;;;1835530;77;26272;-32
2021/12/09 02:11:50;;;;;;;0.60;0.60;;;;;;;;;;1827625;77;26773;-30
2021/12/09 02:14:18;;;;;;;0.60;0.60;;;;;;;;;;1825848;78;26273;-30
2021/12/09 02:16:45;;;;;;;0.95;0.60;;;;;;;;;;1835317;77;26284;-37
2021/12/09 02:19:14;;;;;;;0.60;0.60;;;;;;;;;;1842090;77;26288;-34
2021/12/09 02:21:42;;;;;;;0.68;0.68;;;;;;;;;;1823745;77;26867;-34
2021/12/09 02:24:11;;;;;;;0.50;0.50;;;;;;;;;;1826535;77;26359;-35
2021/12/09 02:26:40;;;;;;;0.50;0.50;;;;;;;;;;1823572;78;26367;-39
2021/12/09 02:29:08;;;;;;;0.60;0.60;;;;;;;;;;1829566;77;26276;-32
2021/12/09 02:31:36;;;;;;;0.60;0.60;;;;;;;;;;1825036;77;26798;-34
2021/12/09 02:34:05;;;;;;;0.57;0.57;;;;;;;;;;1823879;77;26334;-35
2021/12/09 02:36:37;;;;;;;0.40;0.40;;;;;;;;;;1835460;77;26295;-30
2021/12/09 02:39:01;;;;;;;0.75;0.60;;;;;;;;;;1828298;77;26313;-36
2021/12/09 02:41:29;;;;;;;0.50;0.50;;;;;;;;;;1829833;77;26307;-31
2021/12/09 02:43:58;;;;;;;0.50;0.50;;;;;;;;;;1831499;77;26276;-35
2021/12/09 02:46:26;;;;;;;0.53;0.53;;;;;;;;;;1827846;77;26746;-35
2021/12/09 02:48:54;;;;;;;0.60;0.60;;;;;;;;;;1842862;77;26833;-36
2021/12/09 02:51:22;;;;;;;0.60;0.60;;;;;;;;;;1835326;77;26374;-33
2021/12/09 02:53:49;;;;;;;0.60;0.60;;;;;;;;;;1836724;77;26299;-33
2021/12/09 02:56:18;;;;;;;0.68;0.68;;;;;;;;;;1846027;77;26382;-33
2021/12/09 02:58:46;;;;;;;0.68;0.68;;;;;;;;;;1838372;77;26292;-35
2021/12/09 03:01:16;;;;;;;0.50;0.50;;;;;;;;;;1839160;77;26338;-36
2021/12/09 03:03:51;;;;;;;0.57;0.57;;;;;;;;;;1830143;77;26334;-35
2021/12/09 03:06:17;;;;;;;0.60;0.60;;;;;;;;;;1842721;77;26284;-35
2021/12/09 03:08:45;;;;;;;0.62;0.62;;;;;;;;;;1837372;77;26847;-34
2021/12/09 03:11:14;;;;;;;0.60;0.60;;;;;;;;;;1827179;77;26269;-34
2021/12/09 03:13:42;;;;;;;0.45;0.45;;;;;;;;;;1834035;77;26346;-32
2021/12/09 03:16:10;;;;;;;0.53;0.50;;;;;;;;;;1806348;78;27016;-32
2021/12/09 03:18:44;;;;;;;0.65;0.65;;;;;;;;;;1806923;78;26308;-37
2021/12/09 03:21:19;;;;;;;0.60;0.60;;;;;;;;;;1806456;79;26752;-31
2021/12/09 03:23:47;;;;;;;0.50;0.50;;;;;;;;;;1800952;78;26312;-35
2021/12/09 03:26:15;;;;;;;0.42;0.42;;;;;;;;;;1809814;78;26298;-35
2021/12/09 03:28:43;;;;;;;0.50;0.50;;;;;;;;;;1813563;78;26366;-40
2021/12/09 03:31:10;;;;;;;0.50;0.50;;;;;;;;;;1795413;78;26276;-35
2021/12/09 03:33:38;;;;;;;0.55;0.55;;;;;;;;;;1790517;79;26290;-33
2021/12/09 03:36:06;;;;;;;0.60;0.60;;;;;;;;;;1797837;78;26279;-31
2021/12/09 03:38:34;;;;;;;0.70;0.70;;;;;;;;;;1789996;80;26369;-32
2021/12/09 03:41:01;;;;;;;0.60;0.60;;;;;;;;;;1797999;78;26305;-31
2021/12/09 03:43:29;;;;;;;1.00;0.55;;;;;;;;;;1793623;79;26296;-38
2021/12/09 03:45:56;;;;;;;0.50;0.50;;;;;;;;;;1781873;80;26249;-35
2021/12/09 03:48:24;;;;;;;0.55;0.55;;;;;;;;;;1785050;80;26287;-35
2021/12/09 03:50:52;;;;;;;1.10;0.40;;;;;;;;;;1797416;78;26280;-39
2021/12/09 03:53:20;;;;;;;0.50;0.50;;;;;;;;;;1780488;80;26282;-34
2021/12/09 03:55:48;;;;;;;1.22;0.60;;;;;;;;;;1798433;78;26264;-36
2021/12/09 03:58:15;;;;;;;0.60;0.60;;;;;;;;;;1785987;80;26349;-34
2021/12/09 04:00:43;;;;;;;2.58;0.55;;;;;;;;;;1798721;77;26333;-38
2021/12/09 04:03:11;;;;;;;0.80;0.80;;;;;;;;;;1790088;79;26357;-32
2021/12/09 04:05:38;;;;;;;1.50;0.60;;;;;;;;;;1796720;78;26307;-35
2021/12/09 04:08:07;;;;;;;1.30;0.60;;;;;;;;;;1774463;79;26909;-32
2021/12/09 04:10:35;;;;;;;0.40;0.40;;;;;;;;;;1791791;79;26681;-34
2021/12/09 04:13:02;;;;;;;0.60;0.60;;;;;;;;;;1798370;78;26381;-37
2021/12/09 04:15:30;;;;;;;0.70;0.68;;;;;;;;;;1783989;78;26267;-31
2021/12/09 04:17:57;;;;;;;0.65;0.65;;;;;;;;;;1865064;76;26760;-43
2021/12/09 04:20:25;;;;;;;0.50;0.50;;;;;;;;;;1842346;77;26370;-38
2021/12/09 04:22:53;;;;;;;0.57;0.57;;;;;;;;;;1864953;76;26135;-34
2021/12/09 04:25:21;;;;;;;0.50;0.50;;;;;;;;;;1864105;76;26262;-38
2021/12/09 04:27:50;;;;;;;0.60;0.60;;;;;;;;;;1851261;75;26640;-39
2021/12/09 04:30:19;;;;;;;0.55;0.55;;;;;;;;;;1856733;76;26298;-33
2021/12/09 04:32:46;;;;;;;0.60;0.60;;;;;;;;;;1863895;76;26822;-33
2021/12/09 04:35:14;;;;;;;0.62;0.60;;;;;;;;;;1853506;75;26254;-31
2021/12/09 04:37:42;;;;;;;0.90;0.57;;;;;;;;;;1846533;76;26273;-37
2021/12/09 04:40:10;;;;;;;0.65;0.65;;;;;;;;;;1842849;77;26406;-33
2021/12/09 04:42:38;;;;;;;0.50;0.50;;;;;;;;;;1851361;76;26277;-32
2021/12/09 04:45:07;;;;;;;1.10;0.55;;;;;;;;;;1855544;75;26758;-39
2021/12/09 04:47:34;;;;;;;0.60;0.60;;;;;;;;;;1846485;76;26749;-36
2021/12/09 04:50:01;;;;;;;0.62;0.62;;;;;;;;;;1857794;76;26310;-31
2021/12/09 04:52:29;;;;;;;0.80;0.50;;;;;;;;;;1854642;75;26218;-34
2021/12/09 04:54:56;;;;;;;0.40;0.40;;;;;;;;;;1848926;75;26641;-32
2021/12/09 04:57:23;;;;;;;0.65;0.50;;;;;;;;;;1854462;76;26358;-33
2021/12/09 04:59:51;;;;;;;0.50;0.50;;;;;;;;;;1848905;76;26249;-34
2021/12/09 05:02:30;;;;;;;2.83;0.60;;;;;;;;;;1862171;75;26647;-32
2021/12/09 05:04:48;;;;;;;0.80;0.53;;;;;;;;;;1855915;75;26317;-32
2021/12/09 05:07:15;;;;;;;0.70;0.70;;;;;;;;;;1853315;76;26266;-34
2021/12/09 05:09:50;;;;;;;1.00;0.62;;;;;;;;;;1862686;77;26363;-35
2021/12/09 05:12:12;;;;;;;0.65;0.55;;;;;;;;;;1862645;76;26307;-38
2021/12/09 05:14:39;;;;;;;1.17;0.80;;;;;;;;;;1848773;77;26227;-31
2021/12/09 05:17:07;;;;;;;0.95;0.70;;;;;;;;;;1854226;76;26356;-38
2021/12/09 05:19:34;;;;;;;1.10;0.72;;;;;;;;;;1855802;77;26317;-40
2021/12/09 05:22:01;;;;;;;1.85;0.75;;;;;;;;;;1861128;77;26717;-37
2021/12/09 05:24:29;;;;;;;8.70;1.35;;;;;;;;;;1855295;76;26322;-38
2021/12/09 05:26:56;;;;;;;0.60;0.60;;;;;;;;;;1860645;77;26269;-41
2021/12/09 05:29:30;;;;;;;1.12;0.57;;;;;;;;;;1856385;77;26364;-29
2021/12/09 05:32:08;;;;;;;2.60;0.80;;;;;;;;;;1863454;77;26219;-34
2021/12/09 05:34:39;;;;;;;3.37;0.70;;;;;;;;;;1858245;76;26254;-33
2021/12/09 05:37:07;;;;;;;2.10;0.80;;;;;;;;;;1842233;77;26837;-36
2021/12/09 05:39:36;;;;;;;1.40;0.60;;;;;;;;;;1851591;77;26278;-34
2021/12/09 05:42:05;;;;;;;2.30;0.80;;;;;;;;;;1844738;76;26309;-37
2021/12/09 05:44:33;;;;;;;0.80;0.80;;;;;;;;;;1839874;76;26813;-30
2021/12/09 05:47:02;;;;;;;0.98;0.70;;;;;;;;;;1838071;76;26289;-33
2021/12/09 05:49:30;;;;;;;3.15;0.90;;;;;;;;;;1858995;77;26301;-30
2021/12/09 05:51:57;;;;;;;4.75;0.80;;;;;;;;;;1859884;77;26291;-36
2021/12/09 05:54:25;;;;;;;7.25;1.52;;;;;;;;;;1858338;77;26276;-34
2021/12/09 05:56:52;;;;;;;1.45;0.70;;;;;;;;;;1857038;76;26814;-35
2021/12/09 05:59:19;;;;;;;8.35;1.10;;;;;;;;;;1850900;77;26269;-31
2021/12/09 06:01:47;;;;;;;5.05;0.93;;;;;;;;;;1848121;75;26787;-31
2021/12/09 06:04:14;;;;;;;5.85;1.00;;;;;;;;;;1847702;76;26407;-30
2021/12/09 06:06:41;;;;;;;4.05;0.93;;;;;;;;;;1849736;77;26210;-32
2021/12/09 06:09:10;;;;;;;4.15;0.62;;;;;;;;;;1851412;76;26258;-31
2021/12/09 06:11:38;;;;;;;4.17;0.75;;;;;;;;;;1862304;76;26339;-31
2021/12/09 06:14:06;;;;;;;7.50;0.90;;;;;;;;;;1853948;76;26254;-30
2021/12/09 06:16:34;;;;;;;2.45;0.70;;;;;;;;;;1868688;76;26367;-30
2021/12/09 06:19:02;;;;;;;2.40;0.80;;;;;;;;;;1871591;76;26999;-31
2021/12/09 06:21:29;;;;;;;1.40;0.78;;;;;;;;;;1877395;76;26280;-30
2021/12/09 06:23:59;;;;;;;2.80;0.88;;;;;;;;;;1870771;76;27373;-30
2021/12/09 06:26:28;;;;;;;2.60;0.75;;;;;;;;;;1885906;76;26338;-31
2021/12/09 06:28:55;;;;;;;5.08;0.93;;;;;;;;;;1879726;76;26627;-31
2021/12/09 06:31:22;;;;;;;2.27;0.62;;;;;;;;;;1889932;76;26285;-30
2021/12/09 06:33:50;;;;;;;1.67;0.60;;;;;;;;;;1884390;76;27447;-31
2021/12/09 06:36:18;;;;;;;2.22;0.95;;;;;;;;;;1859566;76;26289;-31
2021/12/09 06:38:46;;;;;;;1.70;0.70;;;;;;;;;;1867733;76;26210;-31
2021/12/09 06:41:13;;;;;;;2.12;1.00;;;;;;;;;;1867649;76;26256;-31
2021/12/09 06:43:41;;;;;;;2.67;0.75;;;;;;;;;;1882470;76;26375;-32
2021/12/09 06:46:09;;;;;;;1.55;0.68;;;;;;;;;;1888308;76;26745;-30
2021/12/09 06:48:37;;;;;;;0.80;0.80;;;;;;;;;;1877234;74;26289;-31
2021/12/09 06:51:09;;;;;;;2.12;0.72;;;;;;;;;;1878853;76;26362;-30
2021/12/09 06:53:34;;;;;;;2.65;1.07;;;;;;;;;;1883951;76;26423;-31
2021/12/09 06:56:02;;;;;;;0.88;0.60;;;;;;;;;;1882661;76;26254;-32
2021/12/09 06:58:30;;;;;;;1.22;0.93;;;;;;;;;;1873914;76;26268;-31
2021/12/09 07:00:57;;;;;;;0.75;0.75;;;;;;;;;;1885554;76;26253;-30
2021/12/09 07:03:25;;;;;;;0.75;0.75;;;;;;;;;;1878221;76;26261;-31
2021/12/09 07:05:53;;;;;;;1.32;0.85;;;;;;;;;;1875052;76;26728;-31
2021/12/09 07:08:21;;;;;;;0.90;0.82;;;;;;;;;;1886603;74;26250;-32
2021/12/09 07:10:50;;;;;;;1.05;0.70;;;;;;;;;;1888942;76;26343;-30
2021/12/09 07:13:17;;;;;;;0.95;0.65;;;;;;;;;;1885024;76;26589;-30
2021/12/09 07:15:44;;;;;;;0.70;0.70;;;;;;;;;;1882598;76;26287;-38
2021/12/09 07:18:12;;;;;;;2.05;0.90;;;;;;;;;;1862415;76;26289;-30
2021/12/09 07:20:39;;;;;;;0.85;0.85;;;;;;;;;;1859393;77;26361;-32
2021/12/09 07:23:07;;;;;;;0.60;0.60;;;;;;;;;;1847440;75;26261;-34
2021/12/09 07:25:34;;;;;;;0.70;0.70;;;;;;;;;;1862427;76;26381;-33
2021/12/09 07:28:01;;;;;;;1.67;0.90;;;;;;;;;;1851655;77;26392;-30
2021/12/09 07:30:29;;;;;;;0.80;0.80;;;;;;;;;;1848409;76;26309;-29
2021/12/09 07:32:56;;;;;;;1.75;0.80;;;;;;;;;;1861624;76;26415;-28
2021/12/09 07:35:30;;;;;;;1.05;0.78;;;;;;;;;;1857120;75;26257;-34
2021/12/09 07:37:53;;;;;;;0.80;0.80;;;;;;;;;;1861168;76;26788;-31
2021/12/09 07:40:21;;;;;;;2.00;0.80;;;;;;;;;;1862203;76;26289;-32
2021/12/09 07:42:48;;;;;;;0.80;0.80;;;;;;;;;;1860520;77;26287;-32
2021/12/09 07:45:16;;;;;;;1.35;0.90;;;;;;;;;;1856218;76;26281;-37
2021/12/09 07:47:44;;;;;;;0.82;0.80;;;;;;;;;;1858288;75;26246;-32
2021/12/09 07:50:14;;;;;;;3.45;0.80;;;;;;;;;;1852103;76;26887;-33
2021/12/09 07:52:42;;;;;;;1.47;0.80;;;;;;;;;;1856917;75;26245;-32
2021/12/09 07:55:10;;;;;;;0.80;0.80;;;;;;;;;;1860244;76;26308;-32
2021/12/09 07:57:39;;;;;;;0.75;0.75;;;;;;;;;;1851025;76;26377;-33
2021/12/09 08:00:08;;;;;;;0.80;0.80;;;;;;;;;;1853839;76;28157;-33
2021/12/09 08:02:35;;;;;;;0.80;0.80;;;;;;;;;;1864321;77;26335;-32
2021/12/09 08:05:04;;;;;;;0.72;0.72;;;;;;;;;;1857095;76;26313;-32
2021/12/09 08:07:32;;;;;;;0.80;0.80;;;;;;;;;;1863982;77;26356;-31
2021/12/09 08:09:59;;;;;;;1.42;0.90;;;;;;;;;;1859980;76;26631;-34
2021/12/09 08:12:27;;;;;;;0.65;0.65;;;;;;;;;;1862986;77;26336;-35
2021/12/09 08:14:55;;;;;;;0.70;0.70;;;;;;;;;;1855375;76;26312;-33
2021/12/09 08:17:45;;;;;;;0.93;0.87;;;;;;;;;;1861571;74;28178;-35
2021/12/09 08:20:05;;;;;;;5.70;1.00;;;;;;;;;;1889994;75;26700;-34
2021/12/09 08:22:33;;;;;;;1.20;0.80;;;;;;;;;;1889822;75;26410;-37
2021/12/09 08:25:01;;;;;;;0.70;0.70;;;;;;;;;;1891301;75;26276;-31
2021/12/09 08:27:29;;;;;;;1.98;0.72;;;;;;;;;;1890382;74;26316;-29
2021/12/09 08:29:56;;;;;;;1.27;0.90;;;;;;;;;;1877490;75;26822;-36
2021/12/09 08:32:23;;;;;;;3.70;0.80;;;;;;;;;;1877517;75;26261;-34
2021/12/09 08:34:51;;;;;;;0.90;0.90;;;;;;;;;;1887136;75;26373;-33
2021/12/09 08:37:18;;;;;;;0.78;0.78;;;;;;;;;;1890820;75;26830;-32
2021/12/09 08:39:45;;;;;;;0.62;0.62;;;;;;;;;;1886872;75;26366;-34
2021/12/09 08:42:14;;;;;;;0.70;0.70;;;;;;;;;;1882855;75;26570;-29
2021/12/09 08:44:42;;;;;;;2.45;0.78;;;;;;;;;;1889502;75;26835;-32
2021/12/09 08:47:09;;;;;;;0.80;0.80;;;;;;;;;;1891432;75;26335;-30
2021/12/09 08:49:37;;;;;;;0.60;0.60;;;;;;;;;;1892772;75;25939;-32
2021/12/09 08:52:05;;;;;;;1.75;0.70;;;;;;;;;;1893112;75;26351;-33
2021/12/09 08:54:32;;;;;;;0.70;0.70;;;;;;;;;;1891254;75;26358;-31
2021/12/09 08:57:03;;;;;;;0.70;0.70;;;;;;;;;;1890561;75;26185;-34
2021/12/09 08:59:28;;;;;;;0.70;0.70;;;;;;;;;;1892255;75;26784;-32
2021/12/09 09:01:56;;;;;;;1.50;0.78;;;;;;;;;;1890908;75;26836;-34
2021/12/09 09:04:23;;;;;;;0.78;0.78;;;;;;;;;;1891246;75;26315;-32
2021/12/09 09:06:52;;;;;;;4.03;1.27;;;;;;;;;;1890289;75;26751;-30
2021/12/09 09:09:19;;;;;;;3.12;0.75;;;;;;;;;;1892576;75;26257;-29
2021/12/09 09:11:47;;;;;;;2.02;0.88;;;;;;;;;;1888210;75;28713;-35
2021/12/09 09:14:14;;;;;;;0.72;0.72;;;;;;;;;;1895173;75;26237;-30
2021/12/09 09:16:42;;;;;;;0.98;0.70;;;;;;;;;;1894151;74;26743;-33
2021/12/09 09:19:10;;;;;;;1.30;0.90;;;;;;;;;;1883666;75;26296;-30
2021/12/09 09:21:37;;;;;;;1.70;0.90;;;;;;;;;;1885204;74;26390;-37
2021/12/09 09:24:05;;;;;;;2.47;1.00;;;;;;;;;;1881409;76;26325;-36
2021/12/09 09:26:32;;;;;;;2.50;1.00;;;;;;;;;;1882903;74;26299;-31
2021/12/09 09:29:00;;;;;;;3.23;0.90;;;;;;;;;;1881156;76;28685;-35
2021/12/09 09:31:30;;;;;;;2.02;0.80;;;;;;;;;;1879017;76;26867;-32
2021/12/09 09:34:00;;;;;;;0.98;0.90;;;;;;;;;;1884630;74;26337;-33
2021/12/09 09:36:27;;;;;;;1.22;0.80;;;;;;;;;;1884749;76;26347;-32
2021/12/09 09:39:00;;;;;;;1.17;0.90;;;;;;;;;;1868973;76;26237;-32
2021/12/09 09:41:31;;;;;;;5.05;0.72;;;;;;;;;;1868908;76;26304;-31
2021/12/09 09:43:58;;;;;;;3.37;0.80;;;;;;;;;;1882448;76;26668;-34
2021/12/09 09:46:27;;;;;;;2.30;0.80;;;;;;;;;;1884484;76;26392;-36
2021/12/09 09:48:55;;;;;;;1.82;1.00;;;;;;;;;;1873310;76;38700;-34
2021/12/09 09:51:24;;;;;;;5.25;0.90;;;;;;;;;;1885685;76;26265;-33
2021/12/09 09:53:51;;;;;;;6.95;1.05;;;;;;;;;;1878361;75;28548;-31
2021/12/09 09:56:22;;;;;;;1.95;1.10;;;;;;;;;;1879300;76;26274;-37
2021/12/09 09:58:56;;;;;;;1.67;1.20;;;;;;;;;;1858213;76;26315;-29
2021/12/09 10:01:24;;;;;;;5.45;0.90;;;;;;;;;;1858915;76;26366;-38
2021/12/09 10:03:58;;;;;;;1.75;1.05;;;;;;;;;;1873034;76;26296;-32
2021/12/09 10:06:21;;;;;;;3.00;0.80;;;;;;;;;;1880497;76;26373;-32
2021/12/09 10:08:48;;;;;;;1.72;1.00;;;;;;;;;;1889695;76;26731;-37
2021/12/09 10:11:17;;;;;;;2.10;1.00;;;;;;;;;;1885271;76;27144;-31
2021/12/09 10:13:45;;;;;;;1.57;1.22;;;;;;;;;;1887309;76;26253;-33
2021/12/09 10:16:20;;;;;;;2.00;1.00;;;;;;;;;;1877561;74;26292;-35
2021/12/09 10:18:49;;;;;;;3.42;1.22;;;;;;;;;;1846699;76;31187;-33
2021/12/09 10:21:21;;;;;;;1.25;1.02;;;;;;;;;;1853825;76;26371;-33
2021/12/09 10:23:50;;;;;;;2.92;1.10;;;;;;;;;;1861676;77;26749;-35
2021/12/09 10:26:31;;;;;;;2.75;1.27;;;;;;;;;;1859475;76;26261;-28
2021/12/09 10:29:05;;;;;;;3.00;1.20;;;;;;;;;;1861852;76;26324;-36
2021/12/09 10:31:37;;;;;;;1.67;1.12;;;;;;;;;;1850793;76;26722;-30
2021/12/09 10:34:16;;;;;;;2.00;1.00;;;;;;;;;;1844765;76;26312;-31
2021/12/09 10:36:57;;;;;;;2.00;1.40;;;;;;;;;;1857394;76;26254;-32
2021/12/09 10:39:27;;;;;;;1.70;1.10;;;;;;;;;;1806895;78;26952;-31
2021/12/09 10:41:55;;;;;;;2.45;1.30;;;;;;;;;;1811939;79;31205;-33
2021/12/09 10:44:27;;;;;;;3.08;1.00;;;;;;;;;;1824817;77;26725;-31
2021/12/09 10:47:04;;;;;;;2.55;1.30;;;;;;;;;;1800587;77;26421;-37
2021/12/09 10:49:24;;;;;;;4.33;1.20;;;;;;;;;;1853950;76;26380;-31
2021/12/09 10:51:59;;;;;;;0.93;0.93;;;;;;;;;;1861812;77;26294;-34
2021/12/09 10:54:32;;;;;;;1.32;1.00;;;;;;;;;;1866162;76;26854;-36
2021/12/09 10:57:17;;;;;;;1.87;1.05;;;;;;;;;;1848051;77;26774;-32
2021/12/09 10:59:44;;;;;;;1.57;1.10;;;;;;;;;;1837165;77;26274;-30
2021/12/09 11:02:13;;;;;;;2.20;1.25;;;;;;;;;;1857122;77;26533;-35
2021/12/09 11:04:40;;;;;;;1.12;1.00;;;;;;;;;;1852305;76;26247;-31
2021/12/09 11:07:27;;;;;;;1.65;0.90;;;;;;;;;;1858388;76;26250;-33
2021/12/09 11:09:52;;;;;;;1.62;1.00;;;;;;;;;;1857274;76;26395;-39
2021/12/09 11:12:29;;;;;;;1.10;0.85;;;;;;;;;;1849936;76;26266;-33
2021/12/09 11:15:01;;;;;;;1.20;1.10;;;;;;;;;;1850930;76;26675;-37
2021/12/09 11:17:37;;;;;;;1.40;0.90;;;;;;;;;;1858374;76;26262;-35
2021/12/09 11:20:05;;;;;;;0.78;0.78;;;;;;;;;;1876115;76;26902;-31
2021/12/09 11:22:35;;;;;;;1.37;1.05;;;;;;;;;;1881232;76;26753;-30
2021/12/09 11:25:04;;;;;;;1.10;1.00;;;;;;;;;;1881423;76;26361;-33
2021/12/09 11:27:30;;;;;;;1.12;0.93;;;;;;;;;;1878308;76;26311;-30
2021/12/09 11:30:12;;;;;;;0.90;0.90;;;;;;;;;;1879404;76;26284;-35
2021/12/09 11:35:21;;;;;;;1.17;0.90;;;;;;;;;;1865786;76;26265;-30
2021/12/09 11:40:28;;;;;;;1.20;0.90;;;;;;;;;;1859599;76;26270;-30
2021/12/09 11:42:54;;;;;;;1.77;0.90;;;;;;;;;;1886590;76;27005;-33
2021/12/09 11:45:21;;;;;;;2.83;1.07;;;;;;;;;;1877324;76;28364;-29
2021/12/09 11:47:50;;;;;;;1.67;0.82;;;;;;;;;;1886630;76;26451;-30
2021/12/09 11:50:19;;;;;;;1.17;0.98;;;;;;;;;;1865361;76;28186;-31
2021/12/09 11:52:47;;;;;;;6.08;0.88;;;;;;;;;;1883503;76;26331;-30
2021/12/09 11:55:16;;;;;;;1.10;1.00;;;;;;;;;;1869021;76;28181;-28
2021/12/09 11:57:51;;;;;;;0.90;0.90;;;;;;;;;;1864746;76;28136;-29
2021/12/09 12:12:01;;;;;;;0.72;0.72;;;;;;;;;;1882710;76;26398;-34
2021/12/09 12:14:32;;;;;;;0.80;0.80;;;;;;;;;;1877421;76;26632;-32
2021/12/09 12:17:16;;;;;;;0.90;0.90;;;;;;;;;;1887896;74;27251;-35
2021/12/09 12:20:41;;;;;;;0.70;0.70;;;;;;;;;;1871904;76;26386;-36
2021/12/09 12:25:27;;;;;;;0.70;0.70;;;;;;;;;;1854720;76;26740;-33
2021/12/09 12:27:53;;;;;;;0.80;0.80;;;;;;;;;;1847709;77;26366;-36
2021/12/09 12:40:41;;;;;;;0.68;0.68;;;;;;;;;;1860567;77;26277;-32
2021/12/09 12:43:12;;;;;;;0.70;0.70;;;;;;;;;;1857883;77;26396;-34
2021/12/09 12:51:28;;;;;;;2.45;0.80;;;;;;;;;;1838842;76;26377;-30
2021/12/09 12:53:55;;;;;;;1.57;0.70;;;;;;;;;;1859546;77;26258;-37
2021/12/09 12:56:24;;;;;;;1.70;0.72;;;;;;;;;;1867695;76;26458;-34
2021/12/09 12:59:11;;;;;;;1.12;0.82;;;;;;;;;;1859946;76;26339;-30
2021/12/09 13:01:46;;;;;;;0.80;0.80;;;;;;;;;;1863561;77;26257;-31
2021/12/09 13:04:35;;;;;;;0.90;0.70;;;;;;;;;;1860978;76;26832;-31
2021/12/09 13:07:02;;;;;;;0.90;0.90;;;;;;;;;;1860907;76;26356;-32
2021/12/09 13:12:06;;;;;;;0.90;0.90;;;;;;;;;;1862584;77;26422;-35
2021/12/09 13:14:34;;;;;;;0.80;0.80;;;;;;;;;;1860668;76;26295;-32
2021/12/09 13:17:05;;;;;;;0.80;0.80;;;;;;;;;;1862343;76;26310;-35
2021/12/09 13:19:35;;;;;;;0.82;0.82;;;;;;;;;;1857416;76;26268;-32
2021/12/09 13:22:02;;;;;;;3.40;0.90;;;;;;;;;;1837424;76;26317;-38
2021/12/09 13:24:33;;;;;;;0.80;0.80;;;;;;;;;;1841501;77;26300;-32
2021/12/09 13:27:13;;;;;;;0.95;0.90;;;;;;;;;;1856548;77;26302;-33
2021/12/09 13:32:29;;;;;;;0.80;0.80;;;;;;;;;;1852335;77;26353;-33
2021/12/09 13:35:04;;;;;;;0.80;0.80;;;;;;;;;;1840090;76;26318;-30
2021/12/09 13:47:58;;;;;;;0.70;0.70;;;;;;;;;;1857957;77;26323;-37
2021/12/09 13:50:45;;;;;;;0.70;0.70;;;;;;;;;;1837226;77;26306;-29
2021/12/09 13:55:31;;;;;;;1.75;0.62;;;;;;;;;;1857566;75;26297;-34
2021/12/09 13:58:00;;;;;;;0.70;0.70;;;;;;;;;;1859270;77;26268;-30
2021/12/09 14:00:31;;;;;;;0.60;0.60;;;;;;;;;;1866344;77;27372;-29
2021/12/09 14:02:59;;;;;;;0.62;0.62;;;;;;;;;;1856707;77;26301;-33
2021/12/09 14:05:28;;;;;;;0.80;0.80;;;;;;;;;;1855139;77;29024;-35
2021/12/09 14:08:03;;;;;;;0.70;0.70;;;;;;;;;;1859232;77;26194;-36
2021/12/09 14:10:32;;;;;;;0.70;0.70;;;;;;;;;;1863414;74;26298;-33
2021/12/09 14:13:02;;;;;;;0.60;0.60;;;;;;;;;;1851916;77;26754;-33
2021/12/09 14:15:36;;;;;;;0.70;0.70;;;;;;;;;;1853485;77;26314;-31
2021/12/09 14:18:08;;;;;;;0.68;0.68;;;;;;;;;;1857225;76;26900;-33
2021/12/09 14:20:31;;;;;;;0.60;0.60;;;;;;;;;;1840513;77;26312;-34
2021/12/09 14:22:58;;;;;;;0.60;0.60;;;;;;;;;;1853313;75;26340;-35
2021/12/09 14:25:27;;;;;;;3.80;0.78;;;;;;;;;;1839429;75;28217;-31
2021/12/09 14:27:56;;;;;;;0.70;0.70;;;;;;;;;;1847573;75;26833;-38
2021/12/09 14:30:25;;;;;;;0.80;0.80;;;;;;;;;;1850462;77;26275;-32
2021/12/09 14:32:54;;;;;;;1.55;0.60;;;;;;;;;;1867139;77;26238;-32
2021/12/09 14:35:30;;;;;;;0.78;0.78;;;;;;;;;;1865931;77;26258;-42
2021/12/09 14:37:57;;;;;;;1.65;0.70;;;;;;;;;;1861397;75;26265;-33
2021/12/09 14:40:36;;;;;;;0.50;0.50;;;;;;;;;;1863444;75;27025;-37
2021/12/09 14:43:05;;;;;;;1.95;0.80;;;;;;;;;;1864821;77;26678;-30
2021/12/09 14:45:34;;;;;;;1.55;0.78;;;;;;;;;;1858702;77;26740;-33
2021/12/09 14:48:03;;;;;;;2.60;0.80;;;;;;;;;;1853777;77;28049;-34
2021/12/09 14:50:32;;;;;;;0.70;0.70;;;;;;;;;;1868154;74;26257;-34
2021/12/09 14:52:59;;;;;;;2.10;0.60;;;;;;;;;;1863887;75;26190;-32
2021/12/09 14:55:29;;;;;;;0.60;0.60;;;;;;;;;;1852721;75;26728;-32
2021/12/09 14:58:03;;;;;;;2.25;0.70;;;;;;;;;;1852098;77;26470;-39
2021/12/09 15:00:31;;;;;;;0.70;0.70;;;;;;;;;;1844071;75;26305;-32
2021/12/09 15:03:00;;;;;;;0.75;0.65;;;;;;;;;;1865973;77;26222;-33
2021/12/09 15:05:28;;;;;;;0.70;0.70;;;;;;;;;;1863376;75;26301;-37
2021/12/09 15:08:04;;;;;;;0.70;0.70;;;;;;;;;;1859471;75;26210;-35
2021/12/09 15:10:33;;;;;;;1.62;0.80;;;;;;;;;;1860647;77;26297;-36
2021/12/09 15:13:01;;;;;;;0.70;0.70;;;;;;;;;;1868031;77;26363;-32
2021/12/09 15:15:30;;;;;;;0.80;0.80;;;;;;;;;;1867029;77;26736;-29
2021/12/09 15:18:05;;;;;;;0.60;0.60;;;;;;;;;;1866109;75;26766;-30
2021/12/09 15:20:35;;;;;;;0.70;0.70;;;;;;;;;;1861131;76;26290;-30
2021/12/09 15:23:14;;;;;;;2.40;0.60;;;;;;;;;;1864900;77;26294;-33
2021/12/09 15:25:40;;;;;;;0.60;0.60;;;;;;;;;;1854747;76;26305;-30
2021/12/09 15:28:08;;;;;;;0.60;0.60;;;;;;;;;;1859422;76;26268;-31
2021/12/09 15:30:43;;;;;;;1.45;0.80;;;;;;;;;;1862797;76;26359;-32
2021/12/09 15:33:12;;;;;;;0.70;0.70;;;;;;;;;;1864066;76;26266;-31
2021/12/09 15:35:40;;;;;;;0.60;0.60;;;;;;;;;;1856936;77;26317;-32
2021/12/09 15:38:09;;;;;;;0.80;0.80;;;;;;;;;;1856863;77;26253;-30
2021/12/09 15:40:41;;;;;;;0.80;0.80;;;;;;;;;;1862579;77;26390;-31
2021/12/09 15:43:10;;;;;;;0.65;0.65;;;;;;;;;;1863625;76;26246;-34
2021/12/09 15:45:38;;;;;;;0.55;0.55;;;;;;;;;;1855653;77;26320;-29
2021/12/09 15:48:15;;;;;;;0.93;0.60;;;;;;;;;;1864928;77;26332;-30